sensor_id;sensor_type;location;lat;lon;timestamp;P1;durP1;ratioP1;P2;durP2;ratioP2
42488;SDS011;28118;52.388;9.452;2022-12-07T00:01:16;25.05;;;21.50;;
42488;SDS011;28118;52.388;9.452;2022-12-07T00:03:45;28.63;;;22.52;;
42488;SDS011;28118;52.388;9.452;2022-12-07T00:06:13;26.55;;;22.52;;
42488;SDS011;28118;52.388;9.452;2022-12-07T00:08:41;31.33;;;24.17;;
42488;SDS011;28118;52.388;9.452;2022-12-07T00:11:09;34.13;;;23.42;;
42488;SDS011;28118;52.388;9.452;2022-12-07T00:13:46;23.27;;;20.90;;
42488;SDS011;28118;52.388;9.452;2022-12-07T00:16:17;27.30;;;21.48;;
42488;SDS011;28118;52.388;9.452;2022-12-07T00:18:45;26.30;;;21.92;;
42488;SDS011;28118;52.388;9.452;2022-12-07T00:21:14;26.80;;;23.02;;
42488;SDS011;28118;52.388;9.452;2022-12-07T00:23:43;24.17;;;19.42;;
42488;SDS011;28118;52.388;9.452;2022-12-07T00:26:15;28.10;;;23.55;;
42488;SDS011;28118;52.388;9.452;2022-12-07T00:28:46;23.95;;;21.45;;
42488;SDS011;28118;52.388;9.452;2022-12-07T00:31:34;24.48;;;21.98;;
42488;SDS011;28118;52.388;9.452;2022-12-07T00:34:05;32.00;;;25.67;;
42488;SDS011;28118;52.388;9.452;2022-12-07T00:36:33;27.92;;;24.60;;
42488;SDS011;28118;52.388;9.452;2022-12-07T00:39:00;22.52;;;19.92;;
42488;SDS011;28118;52.388;9.452;2022-12-07T00:41:28;28.65;;;23.02;;
42488;SDS011;28118;52.388;9.452;2022-12-07T00:43:55;26.25;;;23.35;;
42488;SDS011;28118;52.388;9.452;2022-12-07T00:46:23;27.60;;;22.98;;
42488;SDS011;28118;52.388;9.452;2022-12-07T00:48:51;32.75;;;23.23;;
42488;SDS011;28118;52.388;9.452;2022-12-07T00:51:19;29.65;;;26.55;;
42488;SDS011;28118;52.388;9.452;2022-12-07T00:53:47;28.05;;;23.25;;
42488;SDS011;28118;52.388;9.452;2022-12-07T00:56:16;27.00;;;24.35;;
42488;SDS011;28118;52.388;9.452;2022-12-07T00:58:49;29.50;;;23.65;;
42488;SDS011;28118;52.388;9.452;2022-12-07T01:01:20;28.90;;;25.58;;
42488;SDS011;28118;52.388;9.452;2022-12-07T01:03:46;35.15;;;22.05;;
42488;SDS011;28118;52.388;9.452;2022-12-07T01:06:14;26.20;;;23.27;;
42488;SDS011;28118;52.388;9.452;2022-12-07T01:08:42;29.08;;;25.00;;
42488;SDS011;28118;52.388;9.452;2022-12-07T01:11:11;29.58;;;24.80;;
42488;SDS011;28118;52.388;9.452;2022-12-07T01:13:40;28.23;;;24.17;;
42488;SDS011;28118;52.388;9.452;2022-12-07T01:16:08;28.73;;;24.27;;
42488;SDS011;28118;52.388;9.452;2022-12-07T01:18:38;33.90;;;24.83;;
42488;SDS011;28118;52.388;9.452;2022-12-07T01:21:10;34.08;;;25.17;;
42488;SDS011;28118;52.388;9.452;2022-12-07T01:23:38;32.42;;;23.88;;
42488;SDS011;28118;52.388;9.452;2022-12-07T01:26:07;26.63;;;21.40;;
42488;SDS011;28118;52.388;9.452;2022-12-07T01:28:36;31.50;;;23.55;;
42488;SDS011;28118;52.388;9.452;2022-12-07T01:31:07;33.67;;;28.00;;
42488;SDS011;28118;52.388;9.452;2022-12-07T01:33:38;29.95;;;21.42;;
42488;SDS011;28118;52.388;9.452;2022-12-07T01:36:15;33.15;;;27.52;;
42488;SDS011;28118;52.388;9.452;2022-12-07T01:38:47;30.53;;;27.27;;
42488;SDS011;28118;52.388;9.452;2022-12-07T01:41:18;31.23;;;27.90;;
42488;SDS011;28118;52.388;9.452;2022-12-07T01:46:35;26.30;;;21.90;;
42488;SDS011;28118;52.388;9.452;2022-12-07T01:49:02;28.90;;;25.48;;
42488;SDS011;28118;52.388;9.452;2022-12-07T01:51:32;33.70;;;23.10;;
42488;SDS011;28118;52.388;9.452;2022-12-07T01:53:59;25.23;;;21.98;;
42488;SDS011;28118;52.388;9.452;2022-12-07T01:56:26;28.23;;;24.77;;
42488;SDS011;28118;52.388;9.452;2022-12-07T01:58:55;33.95;;;25.50;;
42488;SDS011;28118;52.388;9.452;2022-12-07T02:01:23;26.73;;;20.88;;
42488;SDS011;28118;52.388;9.452;2022-12-07T02:03:50;28.75;;;22.25;;
42488;SDS011;28118;52.388;9.452;2022-12-07T02:06:18;26.60;;;23.83;;
42488;SDS011;28118;52.388;9.452;2022-12-07T02:08:48;29.23;;;22.15;;
42488;SDS011;28118;52.388;9.452;2022-12-07T02:11:15;22.40;;;19.33;;
42488;SDS011;28118;52.388;9.452;2022-12-07T02:13:42;22.77;;;19.60;;
42488;SDS011;28118;52.388;9.452;2022-12-07T02:29:48;23.58;;;20.13;;
42488;SDS011;28118;52.388;9.452;2022-12-07T02:32:24;28.15;;;22.13;;
42488;SDS011;28118;52.388;9.452;2022-12-07T02:37:37;21.38;;;19.08;;
42488;SDS011;28118;52.388;9.452;2022-12-07T02:43:10;25.90;;;17.33;;
42488;SDS011;28118;52.388;9.452;2022-12-07T02:45:44;22.52;;;17.98;;
42488;SDS011;28118;52.388;9.452;2022-12-07T02:48:13;21.60;;;17.50;;
42488;SDS011;28118;52.388;9.452;2022-12-07T02:50:49;21.08;;;18.63;;
42488;SDS011;28118;52.388;9.452;2022-12-07T03:04:54;24.05;;;19.45;;
42488;SDS011;28118;52.388;9.452;2022-12-07T03:08:13;21.70;;;17.02;;
42488;SDS011;28118;52.388;9.452;2022-12-07T03:11:23;18.60;;;15.70;;
42488;SDS011;28118;52.388;9.452;2022-12-07T03:16:31;17.75;;;15.00;;
42488;SDS011;28118;52.388;9.452;2022-12-07T03:19:08;19.08;;;15.02;;
42488;SDS011;28118;52.388;9.452;2022-12-07T03:21:39;14.57;;;12.35;;
42488;SDS011;28118;52.388;9.452;2022-12-07T03:24:10;24.58;;;17.20;;
42488;SDS011;28118;52.388;9.452;2022-12-07T03:26:44;17.83;;;15.77;;
42488;SDS011;28118;52.388;9.452;2022-12-07T03:29:40;22.25;;;17.73;;
42488;SDS011;28118;52.388;9.452;2022-12-07T03:35:25;15.90;;;13.02;;
42488;SDS011;28118;52.388;9.452;2022-12-07T03:37:36;16.00;;;13.07;;
42488;SDS011;28118;52.388;9.452;2022-12-07T03:40:30;17.80;;;14.93;;
42488;SDS011;28118;52.388;9.452;2022-12-07T03:42:59;28.02;;;16.23;;
42488;SDS011;28118;52.388;9.452;2022-12-07T03:45:31;20.55;;;16.02;;
42488;SDS011;28118;52.388;9.452;2022-12-07T03:48:07;21.75;;;16.40;;
42488;SDS011;28118;52.388;9.452;2022-12-07T03:53:45;23.15;;;15.93;;
42488;SDS011;28118;52.388;9.452;2022-12-07T03:56:16;20.10;;;15.73;;
42488;SDS011;28118;52.388;9.452;2022-12-07T03:58:44;16.45;;;14.73;;
42488;SDS011;28118;52.388;9.452;2022-12-07T04:01:11;22.08;;;16.13;;
42488;SDS011;28118;52.388;9.452;2022-12-07T04:03:38;21.17;;;17.13;;
42488;SDS011;28118;52.388;9.452;2022-12-07T04:06:04;27.95;;;17.77;;
42488;SDS011;28118;52.388;9.452;2022-12-07T04:08:31;21.35;;;16.83;;
42488;SDS011;28118;52.388;9.452;2022-12-07T04:10:58;31.13;;;17.27;;
42488;SDS011;28118;52.388;9.452;2022-12-07T04:13:24;24.75;;;14.05;;
42488;SDS011;28118;52.388;9.452;2022-12-07T04:15:51;25.00;;;18.05;;
42488;SDS011;28118;52.388;9.452;2022-12-07T04:18:18;20.50;;;17.10;;
42488;SDS011;28118;52.388;9.452;2022-12-07T04:20:45;20.98;;;15.70;;
42488;SDS011;28118;52.388;9.452;2022-12-07T04:23:12;20.17;;;15.38;;
42488;SDS011;28118;52.388;9.452;2022-12-07T04:25:39;23.02;;;15.43;;
42488;SDS011;28118;52.388;9.452;2022-12-07T04:28:06;27.05;;;15.70;;
42488;SDS011;28118;52.388;9.452;2022-12-07T04:30:33;18.88;;;14.43;;
42488;SDS011;28118;52.388;9.452;2022-12-07T04:32:59;23.02;;;14.45;;
42488;SDS011;28118;52.388;9.452;2022-12-07T04:35:26;18.17;;;13.80;;
42488;SDS011;28118;52.388;9.452;2022-12-07T04:37:52;25.10;;;12.68;;
42488;SDS011;28118;52.388;9.452;2022-12-07T04:40:19;18.23;;;12.65;;
42488;SDS011;28118;52.388;9.452;2022-12-07T04:42:46;22.80;;;13.60;;
42488;SDS011;28118;52.388;9.452;2022-12-07T04:45:12;23.92;;;16.45;;
42488;SDS011;28118;52.388;9.452;2022-12-07T04:47:39;23.42;;;15.73;;
42488;SDS011;28118;52.388;9.452;2022-12-07T04:50:05;34.78;;;15.27;;
42488;SDS011;28118;52.388;9.452;2022-12-07T04:52:32;16.48;;;12.50;;
42488;SDS011;28118;52.388;9.452;2022-12-07T04:54:59;15.30;;;12.77;;
42488;SDS011;28118;52.388;9.452;2022-12-07T04:57:26;15.05;;;10.70;;
42488;SDS011;28118;52.388;9.452;2022-12-07T04:59:52;22.85;;;16.83;;
42488;SDS011;28118;52.388;9.452;2022-12-07T05:02:19;14.07;;;11.73;;
42488;SDS011;28118;52.388;9.452;2022-12-07T05:04:46;17.95;;;13.30;;
42488;SDS011;28118;52.388;9.452;2022-12-07T05:07:12;16.10;;;10.88;;
42488;SDS011;28118;52.388;9.452;2022-12-07T05:09:39;17.70;;;12.15;;
42488;SDS011;28118;52.388;9.452;2022-12-07T05:12:05;17.08;;;11.70;;
42488;SDS011;28118;52.388;9.452;2022-12-07T05:14:32;15.10;;;13.07;;
42488;SDS011;28118;52.388;9.452;2022-12-07T05:16:59;23.70;;;11.88;;
42488;SDS011;28118;52.388;9.452;2022-12-07T05:19:25;13.88;;;11.98;;
42488;SDS011;28118;52.388;9.452;2022-12-07T05:21:52;22.77;;;13.35;;
42488;SDS011;28118;52.388;9.452;2022-12-07T05:24:19;24.83;;;11.52;;
42488;SDS011;28118;52.388;9.452;2022-12-07T05:26:46;12.52;;;11.30;;
42488;SDS011;28118;52.388;9.452;2022-12-07T05:29:13;12.93;;;9.35;;
42488;SDS011;28118;52.388;9.452;2022-12-07T05:31:41;14.48;;;11.95;;
42488;SDS011;28118;52.388;9.452;2022-12-07T05:34:09;12.75;;;11.25;;
42488;SDS011;28118;52.388;9.452;2022-12-07T05:36:36;12.05;;;7.65;;
42488;SDS011;28118;52.388;9.452;2022-12-07T05:39:02;13.10;;;10.05;;
42488;SDS011;28118;52.388;9.452;2022-12-07T05:41:29;18.63;;;11.95;;
42488;SDS011;28118;52.388;9.452;2022-12-07T05:44:14;19.27;;;10.32;;
42488;SDS011;28118;52.388;9.452;2022-12-07T05:46:41;12.38;;;9.48;;
42488;SDS011;28118;52.388;9.452;2022-12-07T05:49:08;16.58;;;8.90;;
42488;SDS011;28118;52.388;9.452;2022-12-07T05:51:34;12.82;;;9.32;;
42488;SDS011;28118;52.388;9.452;2022-12-07T05:54:01;12.50;;;8.70;;
42488;SDS011;28118;52.388;9.452;2022-12-07T05:56:28;22.63;;;8.75;;
42488;SDS011;28118;52.388;9.452;2022-12-07T05:58:54;8.82;;;7.93;;
42488;SDS011;28118;52.388;9.452;2022-12-07T06:01:39;10.82;;;7.78;;
42488;SDS011;28118;52.388;9.452;2022-12-07T06:04:07;9.52;;;7.70;;
42488;SDS011;28118;52.388;9.452;2022-12-07T06:06:33;8.38;;;6.32;;
42488;SDS011;28118;52.388;9.452;2022-12-07T06:09:00;7.50;;;5.93;;
42488;SDS011;28118;52.388;9.452;2022-12-07T06:11:27;9.07;;;6.80;;
42488;SDS011;28118;52.388;9.452;2022-12-07T06:14:12;8.85;;;6.75;;
42488;SDS011;28118;52.388;9.452;2022-12-07T06:16:39;11.90;;;6.35;;
42488;SDS011;28118;52.388;9.452;2022-12-07T06:19:06;10.38;;;6.63;;
42488;SDS011;28118;52.388;9.452;2022-12-07T06:21:32;7.65;;;6.60;;
42488;SDS011;28118;52.388;9.452;2022-12-07T06:23:59;10.50;;;6.10;;
42488;SDS011;28118;52.388;9.452;2022-12-07T06:26:25;10.00;;;6.20;;
42488;SDS011;28118;52.388;9.452;2022-12-07T06:28:52;9.68;;;6.40;;
42488;SDS011;28118;52.388;9.452;2022-12-07T06:31:19;7.03;;;6.32;;
42488;SDS011;28118;52.388;9.452;2022-12-07T06:33:46;12.65;;;5.47;;
42488;SDS011;28118;52.388;9.452;2022-12-07T06:36:12;9.60;;;7.60;;
42488;SDS011;28118;52.388;9.452;2022-12-07T06:38:39;5.10;;;4.60;;
42488;SDS011;28118;52.388;9.452;2022-12-07T06:41:06;4.90;;;4.03;;
42488;SDS011;28118;52.388;9.452;2022-12-07T06:43:33;5.65;;;5.00;;
42488;SDS011;28118;52.388;9.452;2022-12-07T06:45:59;6.20;;;4.53;;
42488;SDS011;28118;52.388;9.452;2022-12-07T06:48:26;5.95;;;3.70;;
42488;SDS011;28118;52.388;9.452;2022-12-07T06:50:53;5.28;;;4.78;;
42488;SDS011;28118;52.388;9.452;2022-12-07T06:53:21;6.78;;;6.05;;
42488;SDS011;28118;52.388;9.452;2022-12-07T06:55:48;5.53;;;3.42;;
42488;SDS011;28118;52.388;9.452;2022-12-07T06:58:14;9.60;;;4.22;;
42488;SDS011;28118;52.388;9.452;2022-12-07T07:00:42;4.55;;;3.30;;
42488;SDS011;28118;52.388;9.452;2022-12-07T07:03:09;12.55;;;6.00;;
42488;SDS011;28118;52.388;9.452;2022-12-07T07:05:36;4.47;;;2.47;;
42488;SDS011;28118;52.388;9.452;2022-12-07T07:08:02;3.90;;;3.47;;
42488;SDS011;28118;52.388;9.452;2022-12-07T07:10:47;4.22;;;3.72;;
42488;SDS011;28118;52.388;9.452;2022-12-07T07:13:14;4.75;;;3.78;;
42488;SDS011;28118;52.388;9.452;2022-12-07T07:15:40;4.30;;;2.90;;
42488;SDS011;28118;52.388;9.452;2022-12-07T07:18:07;6.38;;;5.30;;
42488;SDS011;28118;52.388;9.452;2022-12-07T07:20:34;6.72;;;3.38;;
42488;SDS011;28118;52.388;9.452;2022-12-07T07:23:01;6.53;;;5.05;;
42488;SDS011;28118;52.388;9.452;2022-12-07T07:25:28;5.40;;;3.22;;
42488;SDS011;28118;52.388;9.452;2022-12-07T07:27:54;5.40;;;2.75;;
42488;SDS011;28118;52.388;9.452;2022-12-07T07:30:21;12.52;;;3.60;;
42488;SDS011;28118;52.388;9.452;2022-12-07T07:32:49;5.32;;;3.60;;
42488;SDS011;28118;52.388;9.452;2022-12-07T07:35:15;8.98;;;2.30;;
42488;SDS011;28118;52.388;9.452;2022-12-07T07:37:43;5.22;;;3.45;;
42488;SDS011;28118;52.388;9.452;2022-12-07T07:40:09;4.00;;;2.90;;
42488;SDS011;28118;52.388;9.452;2022-12-07T07:42:36;12.20;;;6.82;;
42488;SDS011;28118;52.388;9.452;2022-12-07T07:45:03;11.05;;;2.53;;
42488;SDS011;28118;52.388;9.452;2022-12-07T07:47:30;11.10;;;1.65;;
42488;SDS011;28118;52.388;9.452;2022-12-07T07:49:57;2.15;;;1.95;;
42488;SDS011;28118;52.388;9.452;2022-12-07T07:52:24;4.63;;;2.95;;
42488;SDS011;28118;52.388;9.452;2022-12-07T07:54:50;9.00;;;2.20;;
42488;SDS011;28118;52.388;9.452;2022-12-07T07:57:17;1.50;;;1.38;;
42488;SDS011;28118;52.388;9.452;2022-12-07T07:59:44;8.63;;;3.42;;
42488;SDS011;28118;52.388;9.452;2022-12-07T08:02:14;2.60;;;2.28;;
42488;SDS011;28118;52.388;9.452;2022-12-07T08:04:42;4.13;;;3.67;;
42488;SDS011;28118;52.388;9.452;2022-12-07T08:07:10;4.28;;;2.35;;
42488;SDS011;28118;52.388;9.452;2022-12-07T08:09:37;2.58;;;1.90;;
42488;SDS011;28118;52.388;9.452;2022-12-07T08:12:04;2.33;;;1.40;;
42488;SDS011;28118;52.388;9.452;2022-12-07T08:14:31;5.82;;;3.78;;
42488;SDS011;28118;52.388;9.452;2022-12-07T08:16:59;9.02;;;2.90;;
42488;SDS011;28118;52.388;9.452;2022-12-07T08:19:26;3.40;;;2.25;;
42488;SDS011;28118;52.388;9.452;2022-12-07T08:21:52;6.47;;;3.60;;
42488;SDS011;28118;52.388;9.452;2022-12-07T08:24:19;4.45;;;2.47;;
42488;SDS011;28118;52.388;9.452;2022-12-07T08:26:45;8.73;;;3.17;;
42488;SDS011;28118;52.388;9.452;2022-12-07T08:29:12;5.45;;;2.60;;
42488;SDS011;28118;52.388;9.452;2022-12-07T08:31:39;3.65;;;2.15;;
42488;SDS011;28118;52.388;9.452;2022-12-07T08:34:06;4.13;;;2.50;;
42488;SDS011;28118;52.388;9.452;2022-12-07T08:36:33;3.28;;;2.33;;
42488;SDS011;28118;52.388;9.452;2022-12-07T08:39:00;2.83;;;2.17;;
42488;SDS011;28118;52.388;9.452;2022-12-07T08:41:47;2.33;;;1.75;;
42488;SDS011;28118;52.388;9.452;2022-12-07T08:44:13;9.57;;;2.00;;
42488;SDS011;28118;52.388;9.452;2022-12-07T08:46:42;2.95;;;2.53;;
42488;SDS011;28118;52.388;9.452;2022-12-07T08:49:16;2.60;;;1.95;;
42488;SDS011;28118;52.388;9.452;2022-12-07T08:51:56;3.47;;;1.80;;
42488;SDS011;28118;52.388;9.452;2022-12-07T08:54:23;3.10;;;1.52;;
42488;SDS011;28118;52.388;9.452;2022-12-07T08:56:50;6.78;;;3.90;;
42488;SDS011;28118;52.388;9.452;2022-12-07T08:59:25;9.60;;;4.95;;
42488;SDS011;28118;52.388;9.452;2022-12-07T09:01:53;21.60;;;5.13;;
42488;SDS011;28118;52.388;9.452;2022-12-07T09:04:19;5.35;;;2.75;;
42488;SDS011;28118;52.388;9.452;2022-12-07T09:06:46;21.13;;;6.53;;
42488;SDS011;28118;52.388;9.452;2022-12-07T09:09:14;14.57;;;5.28;;
42488;SDS011;28118;52.388;9.452;2022-12-07T09:11:41;10.70;;;5.85;;
42488;SDS011;28118;52.388;9.452;2022-12-07T09:14:07;5.28;;;3.72;;
42488;SDS011;28118;52.388;9.452;2022-12-07T09:16:34;5.60;;;3.38;;
42488;SDS011;28118;52.388;9.452;2022-12-07T09:19:01;7.22;;;4.93;;
42488;SDS011;28118;52.388;9.452;2022-12-07T09:21:27;16.55;;;6.50;;
42488;SDS011;28118;52.388;9.452;2022-12-07T09:23:54;8.23;;;5.40;;
42488;SDS011;28118;52.388;9.452;2022-12-07T09:26:21;14.35;;;5.07;;
42488;SDS011;28118;52.388;9.452;2022-12-07T09:28:47;8.55;;;2.55;;
42488;SDS011;28118;52.388;9.452;2022-12-07T09:31:14;4.88;;;2.95;;
42488;SDS011;28118;52.388;9.452;2022-12-07T09:33:55;6.97;;;3.72;;
42488;SDS011;28118;52.388;9.452;2022-12-07T09:36:23;6.93;;;2.95;;
42488;SDS011;28118;52.388;9.452;2022-12-07T09:38:50;2.78;;;2.45;;
42488;SDS011;28118;52.388;9.452;2022-12-07T09:41:17;4.15;;;3.70;;
42488;SDS011;28118;52.388;9.452;2022-12-07T09:43:45;3.35;;;3.05;;
42488;SDS011;28118;52.388;9.452;2022-12-07T09:46:14;16.48;;;3.38;;
42488;SDS011;28118;52.388;9.452;2022-12-07T09:48:43;3.53;;;2.83;;
42488;SDS011;28118;52.388;9.452;2022-12-07T09:51:16;2.38;;;1.90;;
42488;SDS011;28118;52.388;9.452;2022-12-07T09:53:51;4.05;;;3.15;;
42488;SDS011;28118;52.388;9.452;2022-12-07T09:56:19;7.95;;;2.38;;
42488;SDS011;28118;52.388;9.452;2022-12-07T09:58:48;5.28;;;2.28;;
42488;SDS011;28118;52.388;9.452;2022-12-07T10:01:16;7.53;;;2.80;;
42488;SDS011;28118;52.388;9.452;2022-12-07T10:03:49;5.43;;;2.95;;
42488;SDS011;28118;52.388;9.452;2022-12-07T10:06:36;2.97;;;2.42;;
42488;SDS011;28118;52.388;9.452;2022-12-07T10:09:08;2.33;;;2.10;;
42488;SDS011;28118;52.388;9.452;2022-12-07T10:14:33;6.97;;;3.38;;
42488;SDS011;28118;52.388;9.452;2022-12-07T10:17:29;2.25;;;1.70;;
42488;SDS011;28118;52.388;9.452;2022-12-07T10:20:35;2.25;;;1.90;;
42488;SDS011;28118;52.388;9.452;2022-12-07T10:22:59;3.95;;;2.42;;
42488;SDS011;28118;52.388;9.452;2022-12-07T10:25:34;5.35;;;2.20;;
42488;SDS011;28118;52.388;9.452;2022-12-07T10:28:08;7.57;;;4.68;;
42488;SDS011;28118;52.388;9.452;2022-12-07T10:30:50;6.03;;;2.60;;
42488;SDS011;28118;52.388;9.452;2022-12-07T10:35:58;18.67;;;13.05;;
42488;SDS011;28118;52.388;9.452;2022-12-07T10:38:27;19.77;;;4.78;;
42488;SDS011;28118;52.388;9.452;2022-12-07T10:41:04;9.23;;;8.40;;
42488;SDS011;28118;52.388;9.452;2022-12-07T10:43:32;20.30;;;14.80;;
42488;SDS011;28118;52.388;9.452;2022-12-07T10:48:49;6.30;;;5.57;;
42488;SDS011;28118;52.388;9.452;2022-12-07T10:51:34;4.93;;;2.75;;
42488;SDS011;28118;52.388;9.452;2022-12-07T10:54:12;5.82;;;2.85;;
42488;SDS011;28118;52.388;9.452;2022-12-07T10:59:40;4.07;;;3.58;;
42488;SDS011;28118;52.388;9.452;2022-12-07T11:05:57;4.75;;;3.08;;
42488;SDS011;28118;52.388;9.452;2022-12-07T11:11:38;6.97;;;5.20;;
42488;SDS011;28118;52.388;9.452;2022-12-07T11:14:40;10.20;;;3.90;;
42488;SDS011;28118;52.388;9.452;2022-12-07T11:17:44;7.50;;;3.40;;
42488;SDS011;28118;52.388;9.452;2022-12-07T11:22:51;5.70;;;3.58;;
42488;SDS011;28118;52.388;9.452;2022-12-07T11:25:44;9.05;;;3.53;;
42488;SDS011;28118;52.388;9.452;2022-12-07T11:28:34;4.07;;;3.50;;
42488;SDS011;28118;52.388;9.452;2022-12-07T11:31:12;6.05;;;3.88;;
42488;SDS011;28118;52.388;9.452;2022-12-07T11:33:59;9.38;;;3.38;;
42488;SDS011;28118;52.388;9.452;2022-12-07T11:39:03;6.93;;;4.35;;
42488;SDS011;28118;52.388;9.452;2022-12-07T11:41:40;8.48;;;4.68;;
42488;SDS011;28118;52.388;9.452;2022-12-07T11:52:13;12.80;;;5.30;;
42488;SDS011;28118;52.388;9.452;2022-12-07T11:54:51;3.55;;;2.88;;
42488;SDS011;28118;52.388;9.452;2022-12-07T11:57:39;10.50;;;4.55;;
42488;SDS011;28118;52.388;9.452;2022-12-07T12:00:14;7.30;;;3.70;;
42488;SDS011;28118;52.388;9.452;2022-12-07T12:05:23;7.22;;;4.10;;
42488;SDS011;28118;52.388;9.452;2022-12-07T12:08:00;57.20;;;37.70;;
42488;SDS011;28118;52.388;9.452;2022-12-07T12:22:33;18.95;;;3.65;;
42488;SDS011;28118;52.388;9.452;2022-12-07T12:25:07;4.72;;;2.72;;
42488;SDS011;28118;52.388;9.452;2022-12-07T12:27:51;7.32;;;4.20;;
42488;SDS011;28118;52.388;9.452;2022-12-07T12:33:04;5.38;;;2.72;;
42488;SDS011;28118;52.388;9.452;2022-12-07T12:35:46;9.32;;;3.47;;
42488;SDS011;28118;52.388;9.452;2022-12-07T12:38:33;2.25;;;1.88;;
42488;SDS011;28118;52.388;9.452;2022-12-07T12:41:50;5.03;;;2.63;;
42488;SDS011;28118;52.388;9.452;2022-12-07T12:46:55;9.43;;;3.63;;
42488;SDS011;28118;52.388;9.452;2022-12-07T12:55:00;4.88;;;3.08;;
42488;SDS011;28118;52.388;9.452;2022-12-07T12:57:38;3.85;;;2.25;;
42488;SDS011;28118;52.388;9.452;2022-12-07T13:00:18;5.13;;;3.17;;
42488;SDS011;28118;52.388;9.452;2022-12-07T13:02:49;4.07;;;2.28;;
42488;SDS011;28118;52.388;9.452;2022-12-07T13:05:18;3.45;;;2.58;;
42488;SDS011;28118;52.388;9.452;2022-12-07T13:10:25;14.02;;;3.83;;
42488;SDS011;28118;52.388;9.452;2022-12-07T13:15:38;7.68;;;3.05;;
42488;SDS011;28118;52.388;9.452;2022-12-07T13:29:09;4.45;;;2.00;;
42488;SDS011;28118;52.388;9.452;2022-12-07T13:31:55;2.95;;;2.03;;
42488;SDS011;28118;52.388;9.452;2022-12-07T13:34:36;3.33;;;2.17;;
42488;SDS011;28118;52.388;9.452;2022-12-07T13:37:26;15.80;;;3.47;;
42488;SDS011;28118;52.388;9.452;2022-12-07T13:40:15;43.65;;;28.33;;
42488;SDS011;28118;52.388;9.452;2022-12-07T13:42:45;33.92;;;19.10;;
42488;SDS011;28118;52.388;9.452;2022-12-07T13:45:22;11.57;;;7.45;;
42488;SDS011;28118;52.388;9.452;2022-12-07T13:50:51;4.38;;;2.42;;
42488;SDS011;28118;52.388;9.452;2022-12-07T13:53:20;4.40;;;4.00;;
42488;SDS011;28118;52.388;9.452;2022-12-07T13:55:47;4.15;;;3.28;;
42488;SDS011;28118;52.388;9.452;2022-12-07T13:58:19;11.60;;;4.50;;
42488;SDS011;28118;52.388;9.452;2022-12-07T14:00:46;4.18;;;3.53;;
42488;SDS011;28118;52.388;9.452;2022-12-07T14:05:40;7.85;;;2.67;;
42488;SDS011;28118;52.388;9.452;2022-12-07T14:15:53;2.78;;;1.75;;
42488;SDS011;28118;52.388;9.452;2022-12-07T14:18:27;4.10;;;2.60;;
42488;SDS011;28118;52.388;9.452;2022-12-07T14:21:14;3.88;;;1.70;;
42488;SDS011;28118;52.388;9.452;2022-12-07T14:23:44;4.45;;;3.22;;
42488;SDS011;28118;52.388;9.452;2022-12-07T14:26:13;7.05;;;3.35;;
42488;SDS011;28118;52.388;9.452;2022-12-07T14:28:41;6.07;;;3.15;;
42488;SDS011;28118;52.388;9.452;2022-12-07T14:31:10;2.78;;;2.40;;
42488;SDS011;28118;52.388;9.452;2022-12-07T14:33:58;4.63;;;2.78;;
42488;SDS011;28118;52.388;9.452;2022-12-07T14:36:25;3.40;;;2.60;;
42488;SDS011;28118;52.388;9.452;2022-12-07T14:38:52;2.58;;;2.20;;
42488;SDS011;28118;52.388;9.452;2022-12-07T14:41:22;4.50;;;3.70;;
42488;SDS011;28118;52.388;9.452;2022-12-07T14:44:11;4.13;;;3.13;;
42488;SDS011;28118;52.388;9.452;2022-12-07T14:46:58;5.93;;;3.35;;
42488;SDS011;28118;52.388;9.452;2022-12-07T14:49:45;5.63;;;2.70;;
42488;SDS011;28118;52.388;9.452;2022-12-07T14:52:17;2.88;;;2.53;;
42488;SDS011;28118;52.388;9.452;2022-12-07T14:55:44;3.35;;;2.72;;
42488;SDS011;28118;52.388;9.452;2022-12-07T14:58:17;5.32;;;3.80;;
42488;SDS011;28118;52.388;9.452;2022-12-07T15:00:44;6.50;;;4.30;;
42488;SDS011;28118;52.388;9.452;2022-12-07T15:03:11;9.20;;;5.15;;
42488;SDS011;28118;52.388;9.452;2022-12-07T15:05:39;22.65;;;14.93;;
42488;SDS011;28118;52.388;9.452;2022-12-07T15:08:10;9.00;;;7.65;;
42488;SDS011;28118;52.388;9.452;2022-12-07T15:10:39;7.13;;;4.10;;
42488;SDS011;28118;52.388;9.452;2022-12-07T15:13:06;6.57;;;4.85;;
42488;SDS011;28118;52.388;9.452;2022-12-07T15:15:52;5.45;;;3.42;;
42488;SDS011;28118;52.388;9.452;2022-12-07T15:18:21;8.68;;;2.95;;
42488;SDS011;28118;52.388;9.452;2022-12-07T15:20:49;8.68;;;2.53;;
42488;SDS011;28118;52.388;9.452;2022-12-07T15:23:17;4.97;;;2.00;;
42488;SDS011;28118;52.388;9.452;2022-12-07T15:25:45;9.65;;;2.13;;
42488;SDS011;28118;52.388;9.452;2022-12-07T15:28:13;9.55;;;3.80;;
42488;SDS011;28118;52.388;9.452;2022-12-07T15:30:41;11.32;;;6.60;;
42488;SDS011;28118;52.388;9.452;2022-12-07T15:33:11;16.77;;;4.45;;
42488;SDS011;28118;52.388;9.452;2022-12-07T15:35:39;7.85;;;3.33;;
42488;SDS011;28118;52.388;9.452;2022-12-07T15:38:07;12.30;;;5.00;;
42488;SDS011;28118;52.388;9.452;2022-12-07T15:40:34;7.22;;;3.53;;
42488;SDS011;28118;52.388;9.452;2022-12-07T15:43:01;14.57;;;4.47;;
42488;SDS011;28118;52.388;9.452;2022-12-07T15:45:28;13.73;;;4.22;;
42488;SDS011;28118;52.388;9.452;2022-12-07T15:47:55;5.90;;;4.22;;
42488;SDS011;28118;52.388;9.452;2022-12-07T15:50:42;6.07;;;3.10;;
42488;SDS011;28118;52.388;9.452;2022-12-07T15:53:08;14.20;;;4.07;;
42488;SDS011;28118;52.388;9.452;2022-12-07T15:55:35;12.80;;;5.47;;
42488;SDS011;28118;52.388;9.452;2022-12-07T15:58:04;4.68;;;2.90;;
42488;SDS011;28118;52.388;9.452;2022-12-07T16:00:31;14.77;;;5.00;;
42488;SDS011;28118;52.388;9.452;2022-12-07T16:02:58;8.18;;;7.43;;
42488;SDS011;28118;52.388;9.452;2022-12-07T16:05:25;35.10;;;17.02;;
42488;SDS011;28118;52.388;9.452;2022-12-07T16:07:51;24.45;;;14.57;;
42488;SDS011;28118;52.388;9.452;2022-12-07T16:10:18;14.73;;;7.28;;
42488;SDS011;28118;52.388;9.452;2022-12-07T16:12:45;25.20;;;11.15;;
42488;SDS011;28118;52.388;9.452;2022-12-07T16:15:11;27.02;;;16.02;;
42488;SDS011;28118;52.388;9.452;2022-12-07T16:17:38;14.18;;;9.55;;
42488;SDS011;28118;52.388;9.452;2022-12-07T16:20:06;10.60;;;5.15;;
42488;SDS011;28118;52.388;9.452;2022-12-07T16:22:34;8.63;;;4.85;;
42488;SDS011;28118;52.388;9.452;2022-12-07T16:25:01;6.43;;;5.38;;
42488;SDS011;28118;52.388;9.452;2022-12-07T16:27:28;8.55;;;5.78;;
42488;SDS011;28118;52.388;9.452;2022-12-07T16:29:54;16.35;;;6.47;;
42488;SDS011;28118;52.388;9.452;2022-12-07T16:32:21;7.18;;;6.53;;
42488;SDS011;28118;52.388;9.452;2022-12-07T16:34:48;11.13;;;8.57;;
42488;SDS011;28118;52.388;9.452;2022-12-07T16:37:15;20.63;;;9.27;;
42488;SDS011;28118;52.388;9.452;2022-12-07T16:39:41;9.13;;;6.80;;
42488;SDS011;28118;52.388;9.452;2022-12-07T16:42:08;9.10;;;5.65;;
42488;SDS011;28118;52.388;9.452;2022-12-07T16:44:35;6.95;;;5.50;;
42488;SDS011;28118;52.388;9.452;2022-12-07T16:47:01;5.05;;;4.53;;
42488;SDS011;28118;52.388;9.452;2022-12-07T16:49:28;6.22;;;5.47;;
42488;SDS011;28118;52.388;9.452;2022-12-07T16:51:55;5.57;;;4.38;;
42488;SDS011;28118;52.388;9.452;2022-12-07T16:54:42;14.38;;;6.78;;
42488;SDS011;28118;52.388;9.452;2022-12-07T16:57:09;11.18;;;6.53;;
42488;SDS011;28118;52.388;9.452;2022-12-07T16:59:39;12.57;;;7.97;;
42488;SDS011;28118;52.388;9.452;2022-12-07T17:02:06;14.38;;;6.85;;
42488;SDS011;28118;52.388;9.452;2022-12-07T17:04:34;8.43;;;5.72;;
42488;SDS011;28118;52.388;9.452;2022-12-07T17:07:01;11.18;;;6.22;;